createdAt,value
2023-03-13T00:05:14.016Z,43
2023-03-13T00:10:30.413Z,36
2023-03-13T00:15:46.807Z,21
2023-03-13T00:21:03.241Z,19
2023-03-13T00:26:19.643Z,21
2023-03-13T00:31:36.044Z,23
2023-03-13T00:36:52.472Z,22
2023-03-13T00:42:09.417Z,35
2023-03-13T00:47:25.839Z,26
2023-03-13T00:52:42.274Z,17
2023-03-13T00:57:58.676Z,19
2023-03-13T01:03:15.198Z,22
2023-03-13T01:08:31.490Z,20
2023-03-13T01:13:47.847Z,19
2023-03-13T01:19:04.302Z,16
2023-03-13T01:24:20.694Z,16
2023-03-13T01:29:37.078Z,22
2023-03-13T01:34:53.511Z,19
2023-03-13T01:40:09.883Z,20
2023-03-13T01:45:26.290Z,18
2023-03-13T01:50:42.739Z,24
2023-03-13T01:55:59.127Z,23
2023-03-13T02:01:15.548Z,21
2023-03-13T02:06:31.982Z,24
2023-03-13T02:11:48.348Z,20
2023-03-13T02:17:04.818Z,25
2023-03-13T02:22:21.196Z,23
2023-03-13T02:27:37.588Z,20
2023-03-13T02:32:54.107Z,20
2023-03-13T02:38:10.494Z,20
2023-03-13T02:43:26.865Z,20
2023-03-13T02:48:43.308Z,23
2023-03-13T02:53:59.686Z,18
2023-03-13T02:59:16.143Z,16
2023-03-13T03:04:32.625Z,13
2023-03-13T03:09:48.984Z,9
2023-03-13T03:15:05.409Z,11
2023-03-13T03:20:21.830Z,15
2023-03-13T03:25:38.137Z,11
2023-03-13T03:30:54.559Z,12
2023-03-13T03:36:11.025Z,9
2023-03-13T03:41:27.327Z,11
2023-03-13T03:46:43.753Z,12
2023-03-13T03:52:00.101Z,11
2023-03-13T03:57:16.485Z,11
2023-03-13T04:02:33.157Z,12
2023-03-13T04:07:49.244Z,10
2023-03-13T04:13:05.666Z,12
2023-03-13T04:18:22.064Z,11
2023-03-13T04:23:38.429Z,12
2023-03-13T04:28:54.866Z,14
2023-03-13T04:34:11.242Z,13
2023-03-13T04:39:27.655Z,15
2023-03-13T04:44:44.805Z,15
2023-03-13T04:50:01.205Z,20
2023-03-13T04:55:17.654Z,19
2023-03-13T05:00:34.028Z,20
2023-03-13T05:05:50.773Z,21
2023-03-13T05:11:06.886Z,26
2023-03-13T05:16:23.357Z,15
2023-03-13T05:21:40.294Z,57
2023-03-13T05:26:56.729Z,19
2023-03-13T05:32:13.106Z,20
2023-03-13T05:37:29.563Z,20
2023-03-13T05:42:45.970Z,25
2023-03-13T05:48:02.399Z,25
2023-03-13T05:53:18.819Z,29
2023-03-13T05:58:35.192Z,25
2023-03-13T06:03:51.723Z,21
2023-03-13T06:09:08.381Z,25
2023-03-13T06:14:24.436Z,27
2023-03-13T06:19:40.881Z,32
2023-03-13T06:24:57.301Z,22
2023-03-13T06:30:13.756Z,24
2023-03-13T06:35:29.877Z,30
2023-03-13T06:40:47.913Z,35
2023-03-13T06:46:03.214Z,41
2023-03-13T06:51:19.637Z,36
2023-03-13T06:56:36.067Z,33
2023-03-13T07:01:52.489Z,33
2023-03-13T07:07:13.200Z,34
2023-03-13T07:12:25.843Z,29
2023-03-13T07:17:43.204Z,128
2023-03-13T07:22:59.473Z,33
2023-03-13T07:28:15.948Z,30
2023-03-13T07:33:32.353Z,34
2023-03-13T07:38:48.742Z,33
2023-03-13T07:44:05.205Z,31
2023-03-13T07:49:21.576Z,34
2023-03-13T07:54:37.966Z,29
2023-03-13T07:59:54.421Z,37
2023-03-13T08:05:10.887Z,48
2023-03-13T08:10:27.368Z,36
2023-03-13T08:15:43.499Z,52
2023-03-13T08:20:59.869Z,29
2023-03-13T08:26:16.275Z,27
2023-03-13T08:31:32.690Z,25
2023-03-13T08:36:49.044Z,22
2023-03-13T08:42:05.442Z,26
2023-03-13T08:47:21.818Z,22
2023-03-13T08:52:38.182Z,20
2023-03-13T08:57:54.601Z,21
2023-03-13T09:03:11.124Z,18
2023-03-13T09:08:27.385Z,18
2023-03-13T09:13:43.978Z,16
2023-03-13T09:19:00.151Z,20
2023-03-13T09:24:16.494Z,16
2023-03-13T09:29:32.877Z,22
2023-03-13T09:34:49.206Z,19
2023-03-13T09:40:05.592Z,13
2023-03-13T09:45:21.913Z,9
2023-03-13T09:50:38.279Z,8
2023-03-13T09:55:54.641Z,5
2023-03-13T10:01:11.091Z,5
2023-03-13T10:06:27.318Z,4
2023-03-13T10:11:43.635Z,4
2023-03-13T10:17:00.158Z,5
2023-03-13T10:22:16.328Z,3
2023-03-13T10:27:32.629Z,6
2023-03-13T10:32:49.053Z,4
2023-03-13T10:38:05.359Z,8
2023-03-13T10:43:22.485Z,6
2023-03-13T10:48:38.039Z,3
2023-03-13T10:53:54.361Z,3
2023-03-13T10:59:10.687Z,4
2023-03-13T11:04:27.030Z,4
2023-03-13T11:09:43.375Z,3
2023-03-13T11:14:59.847Z,3
2023-03-13T11:20:16.050Z,4
2023-03-13T11:25:32.341Z,4
2023-03-13T11:30:48.668Z,5
2023-03-13T11:36:05.139Z,4
2023-03-13T11:41:21.385Z,3
2023-03-13T11:46:37.842Z,4
2023-03-13T11:51:54.013Z,3
2023-03-13T11:57:10.305Z,2
2023-03-13T12:02:26.685Z,3
2023-03-13T12:07:42.957Z,3
2023-03-13T12:12:59.276Z,4
2023-03-13T12:18:15.630Z,2
2023-03-13T12:23:31.919Z,2
2023-03-13T12:28:48.236Z,2
2023-03-13T12:34:04.549Z,3
2023-03-13T12:39:20.843Z,2
2023-03-13T12:44:37.153Z,4
2023-03-13T12:49:53.475Z,2
2023-03-13T12:55:09.810Z,2
2023-03-13T13:00:26.123Z,3
2023-03-13T13:05:42.393Z,2
2023-03-13T13:10:58.744Z,2
2023-03-13T13:16:15.121Z,1
2023-03-13T13:21:31.569Z,3
2023-03-13T13:26:47.739Z,3
2023-03-13T13:32:04.068Z,2
2023-03-13T13:37:20.383Z,1
2023-03-13T13:42:36.775Z,2
2023-03-13T13:47:53.062Z,1
2023-03-13T13:53:09.401Z,5
2023-03-13T13:58:25.760Z,3
2023-03-13T14:03:42.124Z,4
2023-03-13T14:08:58.434Z,3
2023-03-13T14:14:14.754Z,2
2023-03-13T14:19:31.143Z,3
2023-03-13T14:24:47.496Z,3
2023-03-13T14:30:03.827Z,3
2023-03-13T14:35:20.183Z,1
2023-03-13T14:40:36.516Z,2
2023-03-13T14:45:52.814Z,1
2023-03-13T14:51:15.650Z,2
2023-03-13T14:56:25.473Z,2
2023-03-13T15:01:41.829Z,2
2023-03-13T15:06:58.169Z,2
2023-03-13T15:12:14.455Z,4
2023-03-13T15:17:30.836Z,2
2023-03-13T15:22:47.240Z,3
2023-03-13T15:28:03.494Z,4
2023-03-13T15:33:19.870Z,5
2023-03-13T15:38:36.208Z,4
2023-03-13T15:43:52.591Z,9
2023-03-13T15:49:08.952Z,9
2023-03-13T15:54:25.251Z,6
2023-03-13T15:59:41.619Z,8
2023-03-13T16:04:57.983Z,4
2023-03-13T16:10:14.308Z,5
2023-03-13T16:15:30.693Z,4
2023-03-13T16:20:47.047Z,5
2023-03-13T16:26:03.391Z,6
2023-03-13T16:31:19.883Z,6
2023-03-13T16:36:36.128Z,7
2023-03-13T16:41:52.494Z,6
2023-03-13T16:47:08.920Z,8
2023-03-13T16:52:25.184Z,12
2023-03-13T16:57:41.602Z,5
2023-03-13T17:02:58.198Z,7
2023-03-13T17:08:14.296Z,12
2023-03-13T17:13:30.678Z,11
2023-03-13T17:18:47.092Z,11
2023-03-13T17:24:03.427Z,12
2023-03-13T17:29:19.894Z,10
2023-03-13T17:34:36.289Z,12
2023-03-13T17:39:52.611Z,14
2023-03-13T17:45:08.973Z,15
2023-03-13T17:50:25.321Z,16
2023-03-13T17:55:41.708Z,18
2023-03-13T18:00:58.255Z,29
2023-03-13T18:06:15.400Z,57
2023-03-13T18:11:32.386Z,38
2023-03-13T18:16:48.810Z,36
2023-03-13T18:22:05.184Z,26
2023-03-13T18:27:21.832Z,24
2023-03-13T18:32:37.984Z,23
2023-03-13T18:37:54.349Z,22
2023-03-13T18:43:10.681Z,35
2023-03-13T18:48:27.076Z,34
2023-03-13T18:53:43.559Z,34
2023-03-13T18:59:00.497Z,31
2023-03-13T19:04:16.645Z,31
2023-03-13T19:09:43.274Z,51
2023-03-13T19:14:49.890Z,51
2023-03-13T19:20:06.989Z,63
2023-03-13T19:25:23.403Z,42
2023-03-13T19:30:39.846Z,36
2023-03-13T19:35:56.295Z,44
2023-03-13T19:41:12.630Z,42
2023-03-13T19:46:29.055Z,42
2023-03-13T19:51:45.488Z,50
2023-03-13T19:57:01.899Z,39
2023-03-13T20:02:18.983Z,43
2023-03-13T20:07:35.579Z,39
2023-03-13T20:12:51.954Z,38
2023-03-13T20:18:08.158Z,41
2023-03-13T20:23:24.554Z,51
2023-03-13T20:28:41.360Z,49
2023-03-13T20:33:57.815Z,51
2023-03-13T20:39:14.466Z,46
2023-03-13T20:44:31.245Z,45
2023-03-13T20:49:48.243Z,38
2023-03-13T20:55:05.193Z,37
2023-03-13T21:00:21.674Z,53
2023-03-13T21:05:38.092Z,55
2023-03-13T21:10:54.834Z,49
2023-03-13T21:16:11.936Z,51
2023-03-13T21:21:28.885Z,44
2023-03-13T21:26:45.354Z,44
2023-03-13T21:32:01.763Z,45
2023-03-13T21:37:18.683Z,44
2023-03-13T21:42:35.708Z,47
2023-03-13T21:47:52.100Z,42
2023-03-13T21:53:09.241Z,56
2023-03-13T21:58:26.027Z,50
2023-03-13T22:03:42.460Z,46
2023-03-13T22:08:59.371Z,45
2023-03-13T22:14:15.818Z,42
2023-03-13T22:19:32.737Z,44
2023-03-13T22:24:49.158Z,38
2023-03-13T22:30:05.594Z,34
2023-03-13T22:35:21.971Z,34
2023-03-13T22:40:38.402Z,35
2023-03-13T22:45:55.014Z,30
2023-03-13T22:51:11.398Z,33
2023-03-13T22:56:28.049Z,30
2023-03-13T23:01:44.242Z,42
2023-03-13T23:07:00.695Z,47
2023-03-13T23:12:17.215Z,42
2023-03-13T23:17:33.657Z,37
2023-03-13T23:22:50.044Z,38
2023-03-13T23:28:06.439Z,38
2023-03-13T23:33:22.817Z,36
2023-03-13T23:38:39.257Z,41
2023-03-13T23:43:55.425Z,38
2023-03-13T23:49:11.809Z,41
2023-03-13T23:54:27.982Z,38
2023-03-13T23:59:44.385Z,36
